createdAt,value
2023-05-13T00:01:50.143Z,78.48
2023-05-13T00:04:19.653Z,78.58
2023-05-13T00:06:47.770Z,78.41
2023-05-13T00:09:16.117Z,78.16
2023-05-13T00:11:44.602Z,78.34
2023-05-13T00:14:13.370Z,78.89
2023-05-13T00:16:41.567Z,79.19
2023-05-13T00:19:10.048Z,79.44
2023-05-13T00:21:39.018Z,79.49
2023-05-13T00:24:08.213Z,79.28
2023-05-13T00:26:36.207Z,79.25
2023-05-13T00:29:04.250Z,79.09
2023-05-13T00:31:32.413Z,79.04
2023-05-13T00:34:01.546Z,79.15
2023-05-13T00:36:29.938Z,78.98
2023-05-13T00:38:58.399Z,79.47
2023-05-13T00:41:26.832Z,79.39
2023-05-13T00:43:58.791Z,79.88
2023-05-13T00:46:32.127Z,79.81
2023-05-13T00:49:01.322Z,79.58
2023-05-13T00:51:29.368Z,80.08
2023-05-13T00:53:59.441Z,80.76
2023-05-13T00:56:27.597Z,81.28
2023-05-13T00:58:56.114Z,81.62
2023-05-13T01:01:43.782Z,81.02
2023-05-13T01:04:38.161Z,80.73
2023-05-13T01:07:25.722Z,81.01
2023-05-13T01:10:06.603Z,80.85
2023-05-13T01:12:41.479Z,81.02
2023-05-13T01:15:14.409Z,81.43
2023-05-13T01:17:47.982Z,81.71
2023-05-13T01:20:21.735Z,81.96
2023-05-13T01:22:50.768Z,82.33
2023-05-13T01:25:19.639Z,82.46
2023-05-13T01:27:48.478Z,82.24
2023-05-13T01:30:18.110Z,82.04
2023-05-13T01:32:47.092Z,81.98
2023-05-13T01:35:17.227Z,82.00
2023-05-13T01:37:48.993Z,81.94
2023-05-13T01:40:31.041Z,81.79
2023-05-13T01:43:03.869Z,81.76
2023-05-13T01:45:33.502Z,81.68
2023-05-13T01:48:02.311Z,81.56
2023-05-13T01:50:40.268Z,81.63
2023-05-13T01:53:09.286Z,81.63
2023-05-13T01:55:38.506Z,81.50
2023-05-13T01:58:06.796Z,81.55
2023-05-13T02:00:34.935Z,81.73
2023-05-13T02:03:03.374Z,82.05
2023-05-13T02:05:33.291Z,82.45
2023-05-13T02:08:02.591Z,82.63
2023-05-13T02:10:32.829Z,82.78
2023-05-13T02:13:02.056Z,82.82
2023-05-13T02:15:30.293Z,82.78
2023-05-13T02:17:58.406Z,82.62
2023-05-13T02:20:27.409Z,82.54
2023-05-13T02:22:56.083Z,82.64
2023-05-13T02:25:24.169Z,82.71
2023-05-13T02:27:52.789Z,82.77
2023-05-13T02:30:22.150Z,82.83
2023-05-13T02:32:50.416Z,82.57
2023-05-13T02:35:19.390Z,82.39
2023-05-13T02:37:47.659Z,82.27
2023-05-13T02:40:17.156Z,82.19
2023-05-13T02:42:46.869Z,81.97
2023-05-13T02:45:15.528Z,81.92
2023-05-13T02:47:45.079Z,81.94
2023-05-13T02:50:13.589Z,81.88
2023-05-13T02:52:42.523Z,81.89
2023-05-13T02:55:11.887Z,81.97
2023-05-13T02:57:40.349Z,81.89
2023-05-13T03:00:09.445Z,82.01
2023-05-13T03:02:38.089Z,82.03
2023-05-13T03:05:06.885Z,81.95
2023-05-13T03:07:35.419Z,82.08
2023-05-13T03:10:03.728Z,82.32
2023-05-13T03:12:32.054Z,82.27
2023-05-13T03:15:00.201Z,82.52
2023-05-13T03:17:30.985Z,82.88
2023-05-13T03:19:59.385Z,82.69
2023-05-13T03:22:27.680Z,82.45
2023-05-13T03:24:57.369Z,82.61
2023-05-13T03:27:27.207Z,82.61
2023-05-13T03:29:55.408Z,82.55
2023-05-13T03:32:30.711Z,82.24
2023-05-13T03:35:01.088Z,81.73
2023-05-13T03:37:30.191Z,81.33
2023-05-13T03:39:58.626Z,80.87
2023-05-13T03:42:26.874Z,80.88
2023-05-13T03:44:59.994Z,80.40
2023-05-13T03:47:28.367Z,79.92
2023-05-13T03:49:59.337Z,79.86
2023-05-13T03:52:27.669Z,79.92
2023-05-13T03:54:55.788Z,79.52
2023-05-13T03:57:24.320Z,79.38
2023-05-13T03:59:52.350Z,79.35
2023-05-13T04:02:45.658Z,79.18
2023-05-13T04:05:14.444Z,78.45
2023-05-13T04:07:42.660Z,77.80
2023-05-13T04:10:14.571Z,77.87
2023-05-13T04:12:43.626Z,77.81
2023-05-13T04:15:12.932Z,77.61
2023-05-13T04:17:41.944Z,77.65
2023-05-13T04:20:10.415Z,77.42
2023-05-13T04:22:38.411Z,76.73
2023-05-13T04:25:07.440Z,77.03
2023-05-13T04:27:36.285Z,76.84
2023-05-13T04:34:37.493Z,76.30
2023-05-13T04:37:05.988Z,76.46
2023-05-13T04:39:34.127Z,76.11
2023-05-13T04:42:02.502Z,75.83
2023-05-13T04:44:31.322Z,76.23
2023-05-13T04:46:59.829Z,75.77
2023-05-13T04:49:28.040Z,76.32
2023-05-13T04:51:57.491Z,78.62
2023-05-13T04:54:25.963Z,77.04
2023-05-13T04:56:54.044Z,75.05
2023-05-13T04:59:23.561Z,74.96
2023-05-13T05:01:51.652Z,75.68
2023-05-13T05:04:20.003Z,73.82
2023-05-13T05:06:48.815Z,68.61
2023-05-13T05:09:19.033Z,66.58
2023-05-13T05:11:50.746Z,63.12
2023-05-13T05:14:20.922Z,58.70
2023-05-13T05:16:50.943Z,58.72
2023-05-13T05:19:24.821Z,57.80
2023-05-13T05:21:54.732Z,58.01
2023-05-13T05:24:22.713Z,58.25
2023-05-13T05:26:50.780Z,58.90
2023-05-13T05:29:19.000Z,52.91
2023-05-13T05:31:47.611Z,49.65
2023-05-13T05:34:16.012Z,49.21
2023-05-13T05:36:44.719Z,47.72
2023-05-13T05:39:14.156Z,48.58
2023-05-13T05:41:42.236Z,49.43
2023-05-13T05:44:13.527Z,50.38
2023-05-13T05:46:42.171Z,51.03
2023-05-13T05:49:10.156Z,49.73
2023-05-13T05:51:39.060Z,48.60
2023-05-13T05:54:08.616Z,49.66
2023-05-13T05:56:37.997Z,50.72
2023-05-13T05:59:07.586Z,50.27
2023-05-13T06:01:37.031Z,49.90
2023-05-13T06:04:05.729Z,48.53
2023-05-13T06:06:33.987Z,46.59
2023-05-13T06:09:03.184Z,45.04
2023-05-13T06:11:31.128Z,46.51
2023-05-13T06:13:59.189Z,45.14
2023-05-13T06:16:28.402Z,44.55
2023-05-13T06:18:56.443Z,44.79
2023-05-13T06:21:25.219Z,44.57
2023-05-13T06:23:53.704Z,43.43
2023-05-13T06:26:22.648Z,43.02
2023-05-13T06:28:50.944Z,42.62
2023-05-13T06:31:19.022Z,41.14
2023-05-13T06:33:47.763Z,39.30
2023-05-13T06:36:15.847Z,39.55
2023-05-13T06:38:44.118Z,38.19
2023-05-13T06:41:12.816Z,38.75
2023-05-13T06:43:41.592Z,38.44
2023-05-13T06:46:16.949Z,37.83
2023-05-13T06:48:45.916Z,37.94
2023-05-13T06:51:13.959Z,35.50
2023-05-13T06:53:41.891Z,34.40
2023-05-13T06:56:09.839Z,34.45
2023-05-13T06:58:37.710Z,34.93
2023-05-13T07:01:05.854Z,34.13
2023-05-13T07:03:34.117Z,34.44
2023-05-13T07:06:02.080Z,32.02
2023-05-13T07:08:30.130Z,31.93
2023-05-13T07:10:58.049Z,31.68
2023-05-13T07:13:26.535Z,31.16
2023-05-13T07:15:54.940Z,31.03
2023-05-13T07:18:23.755Z,30.84
2023-05-13T07:20:52.609Z,30.25
2023-05-13T07:23:21.223Z,27.91
2023-05-13T07:25:51.543Z,26.60
2023-05-13T07:28:20.864Z,27.57
2023-05-13T07:30:48.834Z,28.84
2023-05-13T07:33:16.736Z,27.84
2023-05-13T07:35:45.126Z,29.02
2023-05-13T07:38:13.154Z,26.85
2023-05-13T07:40:41.888Z,27.51
2023-05-13T07:43:10.838Z,28.22
2023-05-13T07:45:39.367Z,27.39
2023-05-13T07:48:07.481Z,26.91
2023-05-13T07:50:35.488Z,27.94
2023-05-13T07:53:03.391Z,28.23
2023-05-13T07:55:31.493Z,28.00
2023-05-13T07:57:59.426Z,27.46
2023-05-13T08:00:27.439Z,26.66
2023-05-13T08:02:56.271Z,27.11
2023-05-13T08:05:24.585Z,25.78
2023-05-13T08:07:52.424Z,27.31
2023-05-13T08:10:20.477Z,27.39
2023-05-13T08:12:52.323Z,28.16
2023-05-13T08:15:20.336Z,28.15
2023-05-13T08:17:49.249Z,28.47
2023-05-13T08:20:17.095Z,28.54
2023-05-13T08:22:44.987Z,28.67
2023-05-13T08:25:13.134Z,29.00
2023-05-13T08:27:41.157Z,29.31
2023-05-13T08:30:09.355Z,30.55
2023-05-13T08:32:37.465Z,29.81
2023-05-13T08:35:05.695Z,28.95
2023-05-13T08:37:33.674Z,29.25
2023-05-13T08:40:01.725Z,29.81
2023-05-13T08:42:32.508Z,29.58
2023-05-13T08:45:04.137Z,29.87
2023-05-13T08:47:46.715Z,29.06
2023-05-13T08:50:14.894Z,27.64
2023-05-13T08:52:43.758Z,26.43
2023-05-13T08:55:12.740Z,27.11
2023-05-13T08:57:41.597Z,27.36
2023-05-13T09:00:11.539Z,27.43
2023-05-13T09:02:39.537Z,27.57
2023-05-13T09:05:09.378Z,27.17
2023-05-13T09:07:38.980Z,28.07
2023-05-13T09:10:07.665Z,28.63
2023-05-13T09:12:41.926Z,28.46
2023-05-13T09:15:11.221Z,28.01
2023-05-13T09:17:43.005Z,27.55
2023-05-13T09:20:13.258Z,28.76
2023-05-13T09:22:41.941Z,28.15
2023-05-13T09:25:12.043Z,28.89
2023-05-13T09:27:42.088Z,29.50
2023-05-13T09:30:10.926Z,29.28
2023-05-13T09:32:39.518Z,29.69
2023-05-13T09:35:17.550Z,29.75
2023-05-13T09:37:49.339Z,30.17
2023-05-13T09:40:18.041Z,30.41
2023-05-13T09:42:46.576Z,30.20
2023-05-13T09:45:16.167Z,30.04
2023-05-13T09:47:44.682Z,29.78
2023-05-13T09:50:13.783Z,30.80
2023-05-13T09:52:41.791Z,29.30
2023-05-13T09:55:10.040Z,29.28
2023-05-13T09:57:39.435Z,29.25
2023-05-13T10:00:12.819Z,28.92
2023-05-13T10:02:46.287Z,27.92
2023-05-13T10:05:14.756Z,28.34
2023-05-13T10:07:43.626Z,28.55
2023-05-13T10:10:12.036Z,29.43
2023-05-13T10:12:41.442Z,29.97
2023-05-13T10:15:10.392Z,30.41
2023-05-13T10:17:39.802Z,30.28
2023-05-13T10:20:08.145Z,29.33
2023-05-13T10:22:37.287Z,29.26
2023-05-13T10:25:05.567Z,29.03
2023-05-13T10:27:33.922Z,28.82
2023-05-13T10:30:03.892Z,29.73
2023-05-13T10:32:32.229Z,30.00
2023-05-13T10:35:20.279Z,29.91
2023-05-13T10:37:54.490Z,31.16
2023-05-13T10:40:29.562Z,30.46
2023-05-13T10:43:17.311Z,28.47
2023-05-13T10:45:56.238Z,29.11
2023-05-13T10:48:24.753Z,28.74
2023-05-13T10:50:57.332Z,29.68
2023-05-13T10:53:28.276Z,29.65
2023-05-13T10:55:56.900Z,29.06
2023-05-13T10:58:35.272Z,28.89
2023-05-13T11:04:56.412Z,29.19
2023-05-13T11:07:25.746Z,29.46
2023-05-13T11:09:56.155Z,29.36
2023-05-13T11:12:24.040Z,30.21
2023-05-13T11:14:55.959Z,30.46
2023-05-13T11:17:24.662Z,30.46
2023-05-13T11:19:53.383Z,30.83
2023-05-13T11:22:22.553Z,30.87
2023-05-13T11:25:11.154Z,29.82
2023-05-13T11:27:40.557Z,31.24
2023-05-13T11:30:21.155Z,30.97
2023-05-13T11:32:58.456Z,30.89
2023-05-13T11:35:28.282Z,31.43
2023-05-13T11:37:59.627Z,30.86
2023-05-13T11:40:32.199Z,28.47
2023-05-13T11:43:00.988Z,29.26
2023-05-13T11:45:29.451Z,29.86
2023-05-13T11:47:57.950Z,30.01
2023-05-13T11:50:30.508Z,30.33
2023-05-13T11:52:59.784Z,30.81
2023-05-13T11:55:28.966Z,30.62
2023-05-13T11:57:57.284Z,31.57
2023-05-13T12:00:26.407Z,30.31
2023-05-13T12:02:54.736Z,29.30
2023-05-13T12:05:26.487Z,29.63
2023-05-13T12:07:58.302Z,29.62
2023-05-13T12:10:26.455Z,28.04
2023-05-13T12:12:54.863Z,28.97
2023-05-13T12:15:23.428Z,29.23
2023-05-13T12:17:52.582Z,29.82
2023-05-13T12:20:21.604Z,30.61
2023-05-13T12:22:50.830Z,29.95
2023-05-13T12:25:36.926Z,29.90
2023-05-13T12:28:09.301Z,30.21
2023-05-13T12:30:38.075Z,30.44
2023-05-13T12:33:06.440Z,30.46
2023-05-13T12:35:34.852Z,30.13
2023-05-13T12:38:04.196Z,30.06
2023-05-13T12:40:32.659Z,30.19
2023-05-13T12:43:01.529Z,29.34
2023-05-13T12:45:30.759Z,29.22
2023-05-13T12:47:59.325Z,29.92
2023-05-13T12:50:27.386Z,30.22
2023-05-13T12:52:55.551Z,30.36
2023-05-13T12:55:24.314Z,31.19
2023-05-13T12:58:03.052Z,30.93
2023-05-13T13:00:31.161Z,29.54
2023-05-13T13:02:59.207Z,30.68
2023-05-13T13:05:27.374Z,31.81
2023-05-13T13:07:55.437Z,31.70
2023-05-13T13:10:23.300Z,31.04
2023-05-13T13:12:51.272Z,29.58
2023-05-13T13:15:19.488Z,28.93
2023-05-13T13:17:47.680Z,29.25
2023-05-13T13:20:15.595Z,28.48
2023-05-13T13:22:43.478Z,28.74
2023-05-13T13:25:11.871Z,28.94
2023-05-13T13:27:40.105Z,29.20
2023-05-13T13:30:08.526Z,29.17
2023-05-13T13:32:36.499Z,31.02
2023-05-13T13:35:05.740Z,29.37
2023-05-13T13:37:35.459Z,29.34
2023-05-13T13:40:05.046Z,30.09
2023-05-13T13:42:43.213Z,30.02
2023-05-13T13:45:13.705Z,31.60
2023-05-13T13:47:42.073Z,31.79
2023-05-13T13:50:10.504Z,31.45
2023-05-13T13:52:38.430Z,32.01
2023-05-13T13:55:06.745Z,31.67
2023-05-13T13:57:34.800Z,31.01
2023-05-13T14:00:02.849Z,30.32
2023-05-13T14:02:36.885Z,30.61
2023-05-13T14:05:05.051Z,31.14
2023-05-13T14:07:33.233Z,31.92
2023-05-13T14:10:01.601Z,31.24
2023-05-13T14:12:29.870Z,32.50
2023-05-13T14:14:58.387Z,30.47
2023-05-13T14:17:26.375Z,32.48
2023-05-13T14:19:55.689Z,33.43
2023-05-13T14:22:24.014Z,32.92
2023-05-13T14:24:52.714Z,31.71
2023-05-13T14:27:21.937Z,31.89
2023-05-13T14:29:50.189Z,31.16
2023-05-13T14:32:18.140Z,31.11
2023-05-13T14:34:46.368Z,30.38
2023-05-13T14:37:14.287Z,31.05
2023-05-13T14:39:42.459Z,30.70
2023-05-13T14:42:11.888Z,31.01
2023-05-13T14:44:41.603Z,30.96
2023-05-13T14:47:10.624Z,31.15
2023-05-13T14:49:39.277Z,31.92
2023-05-13T14:52:07.319Z,31.99
2023-05-13T14:54:36.930Z,31.70
2023-05-13T14:57:06.070Z,31.83
2023-05-13T14:59:34.456Z,32.09
2023-05-13T15:02:02.950Z,32.25
2023-05-13T15:04:30.986Z,32.76
2023-05-13T15:06:59.530Z,33.42
2023-05-13T15:09:27.656Z,33.10
2023-05-13T15:11:55.657Z,33.04
2023-05-13T15:14:26.108Z,31.81
2023-05-13T15:16:54.349Z,32.58
2023-05-13T15:19:22.701Z,31.41
2023-05-13T15:21:51.648Z,32.10
2023-05-13T15:24:19.803Z,31.65
2023-05-13T15:26:48.552Z,31.72
2023-05-13T15:29:16.942Z,32.35
2023-05-13T15:31:45.061Z,32.45
2023-05-13T15:34:13.040Z,31.62
2023-05-13T15:36:41.134Z,32.93
2023-05-13T15:39:11.289Z,32.91
2023-05-13T15:41:39.341Z,34.35
2023-05-13T15:44:07.477Z,33.32
2023-05-13T15:46:35.705Z,33.17
2023-05-13T15:49:03.841Z,33.13
2023-05-13T15:51:32.027Z,33.05
2023-05-13T15:54:03.000Z,33.11
2023-05-13T15:56:31.032Z,32.46
2023-05-13T15:58:59.080Z,32.33
2023-05-13T16:01:27.110Z,31.78
2023-05-13T16:03:55.037Z,31.84
2023-05-13T16:06:23.307Z,31.77
2023-05-13T16:08:51.244Z,32.72
2023-05-13T16:11:19.230Z,32.92
2023-05-13T16:13:47.306Z,31.82
2023-05-13T16:16:15.625Z,32.63
2023-05-13T16:18:43.633Z,32.48
2023-05-13T16:21:12.172Z,32.91
2023-05-13T16:23:40.389Z,32.98
2023-05-13T16:26:08.314Z,33.48
2023-05-13T16:28:36.223Z,33.15
2023-05-13T16:31:04.614Z,33.43
2023-05-13T16:33:33.878Z,34.02
2023-05-13T16:36:01.852Z,34.06
2023-05-13T16:38:30.496Z,34.11
2023-05-13T16:40:58.481Z,34.52
2023-05-13T16:43:26.622Z,34.74
2023-05-13T16:45:54.515Z,35.25
2023-05-13T16:48:23.618Z,35.63
2023-05-13T16:50:52.053Z,35.51
2023-05-13T16:53:22.348Z,35.76
2023-05-13T16:55:50.518Z,36.41
2023-05-13T16:58:18.666Z,36.77
2023-05-13T17:00:46.629Z,36.81
2023-05-13T17:03:15.069Z,36.76
2023-05-13T17:05:43.813Z,36.68
2023-05-13T17:08:11.701Z,36.71
2023-05-13T17:10:39.709Z,36.64
2023-05-13T17:13:07.659Z,36.52
2023-05-13T17:15:35.839Z,36.92
2023-05-13T17:18:03.834Z,37.37
2023-05-13T17:20:31.800Z,38.00
2023-05-13T17:22:59.759Z,38.18
2023-05-13T17:25:27.700Z,38.04
2023-05-13T17:27:55.541Z,38.52
2023-05-13T17:30:23.846Z,38.59
2023-05-13T17:32:52.007Z,38.44
2023-05-13T17:35:20.234Z,38.83
2023-05-13T17:37:48.352Z,39.39
2023-05-13T17:40:16.400Z,39.45
2023-05-13T17:42:44.511Z,40.53
2023-05-13T17:45:12.872Z,40.46
2023-05-13T17:47:44.090Z,41.02
2023-05-13T17:50:14.500Z,41.07
2023-05-13T17:52:42.567Z,38.38
2023-05-13T17:55:10.727Z,36.59
2023-05-13T17:57:39.073Z,37.06
2023-05-13T18:00:07.735Z,37.27
2023-05-13T18:02:36.536Z,37.40
2023-05-13T18:05:06.401Z,37.59
2023-05-13T18:07:34.583Z,38.20
2023-05-13T18:10:02.993Z,38.64
2023-05-13T18:12:31.151Z,39.45
2023-05-13T18:14:59.208Z,40.02
2023-05-13T18:17:27.797Z,40.40
2023-05-13T18:19:55.971Z,40.92
2023-05-13T18:22:24.048Z,41.59
2023-05-13T18:24:52.285Z,42.19
2023-05-13T18:27:21.713Z,42.56
2023-05-13T18:29:50.419Z,43.03
2023-05-13T18:32:18.453Z,43.48
2023-05-13T18:34:46.545Z,43.82
2023-05-13T18:37:15.262Z,44.22
2023-05-13T18:39:45.925Z,44.43
2023-05-13T18:42:13.906Z,45.29
2023-05-13T18:44:42.172Z,46.10
2023-05-13T18:47:11.477Z,46.60
2023-05-13T18:49:39.501Z,47.09
2023-05-13T18:52:07.537Z,47.99
2023-05-13T18:54:36.219Z,48.08
2023-05-13T18:57:04.608Z,48.33
2023-05-13T18:59:33.313Z,48.67
2023-05-13T19:04:38.726Z,49.76
2023-05-13T19:07:06.937Z,50.25
2023-05-13T19:09:35.994Z,50.75
2023-05-13T19:12:04.214Z,51.18
2023-05-13T19:14:32.900Z,51.89
2023-05-13T19:17:01.436Z,52.51
2023-05-13T19:19:29.434Z,52.95
2023-05-13T19:21:57.460Z,53.57
2023-05-13T19:24:25.492Z,53.97
2023-05-13T19:26:53.634Z,54.75
2023-05-13T19:29:22.668Z,55.10
2023-05-13T19:31:51.090Z,55.47
2023-05-13T19:34:19.266Z,56.30
2023-05-13T19:36:47.394Z,56.94
2023-05-13T19:39:15.573Z,57.37
2023-05-13T19:41:50.705Z,57.90
2023-05-13T19:44:18.776Z,58.01
2023-05-13T19:46:47.237Z,58.78
2023-05-13T19:49:15.836Z,59.50
2023-05-13T19:51:44.280Z,60.00
2023-05-13T19:54:13.666Z,60.59
2023-05-13T19:56:41.894Z,61.13
2023-05-13T19:59:11.401Z,61.67
2023-05-13T20:01:40.142Z,61.98
2023-05-13T20:04:09.168Z,62.29
2023-05-13T20:06:37.180Z,62.89
2023-05-13T20:09:06.599Z,63.36
2023-05-13T20:11:36.387Z,63.62
2023-05-13T20:14:04.645Z,63.96
2023-05-13T20:16:32.898Z,64.69
2023-05-13T20:19:00.988Z,64.37
2023-05-13T20:21:29.274Z,65.63
2023-05-13T20:23:57.406Z,66.63
2023-05-13T20:26:25.921Z,66.34
2023-05-13T20:28:54.050Z,66.33
2023-05-13T20:31:24.014Z,67.62
2023-05-13T20:33:52.181Z,67.65
2023-05-13T20:36:20.167Z,68.14
2023-05-13T20:39:13.964Z,69.35
2023-05-13T20:41:42.068Z,69.05
2023-05-13T20:44:12.663Z,69.70
2023-05-13T20:46:40.864Z,69.63
2023-05-13T20:49:09.191Z,69.44
2023-05-13T20:51:37.859Z,70.10
2023-05-13T20:54:08.991Z,70.60
2023-05-13T20:56:37.100Z,70.31
2023-05-13T20:59:05.989Z,70.45
2023-05-13T21:01:35.434Z,70.31
2023-05-13T21:04:06.135Z,70.43
2023-05-13T21:06:34.196Z,70.74
2023-05-13T21:09:02.181Z,71.17
2023-05-13T21:11:30.475Z,71.74
2023-05-13T21:13:58.644Z,71.78
2023-05-13T21:16:26.805Z,72.21
2023-05-13T21:18:54.831Z,71.98
2023-05-13T21:21:23.375Z,72.44
2023-05-13T21:23:51.418Z,72.59
2023-05-13T21:26:21.945Z,73.52
2023-05-13T21:28:50.029Z,73.72
2023-05-13T21:31:17.982Z,74.08
2023-05-13T21:33:46.367Z,74.13
2023-05-13T21:36:15.477Z,74.30
2023-05-13T21:38:43.453Z,74.65
2023-05-13T21:41:13.133Z,75.69
2023-05-13T21:43:42.334Z,75.98
2023-05-13T21:46:10.257Z,75.76
2023-05-13T21:48:40.457Z,75.89
2023-05-13T21:51:08.824Z,75.07
2023-05-13T21:53:38.203Z,75.22
2023-05-13T21:56:07.402Z,75.00
2023-05-13T21:58:36.574Z,75.68
2023-05-13T22:01:04.841Z,76.09
2023-05-13T22:03:32.870Z,76.03
2023-05-13T22:06:02.503Z,75.79
2023-05-13T22:08:30.538Z,76.05
2023-05-13T22:11:01.408Z,76.06
2023-05-13T22:13:29.510Z,76.74
2023-05-13T22:15:57.928Z,76.72
2023-05-13T22:18:26.133Z,76.77
2023-05-13T22:20:55.815Z,76.48
2023-05-13T22:23:24.186Z,76.28
2023-05-13T22:25:52.323Z,76.19
2023-05-13T22:28:22.717Z,77.19
2023-05-13T22:30:55.412Z,77.00
2023-05-13T22:33:24.714Z,77.06
2023-05-13T22:35:52.831Z,77.25
2023-05-13T22:38:20.845Z,77.07
2023-05-13T22:40:52.152Z,76.98
2023-05-13T22:43:20.413Z,76.79
2023-05-13T22:45:48.422Z,76.95
2023-05-13T22:48:18.416Z,77.21
2023-05-13T22:50:46.483Z,77.27
2023-05-13T22:53:14.783Z,77.14
2023-05-13T22:55:42.841Z,77.09
2023-05-13T22:58:12.048Z,77.14
2023-05-13T23:00:40.973Z,77.25
2023-05-13T23:03:09.044Z,77.43
2023-05-13T23:05:37.143Z,77.66
2023-05-13T23:08:05.830Z,77.63
2023-05-13T23:10:33.887Z,77.80
2023-05-13T23:13:05.929Z,78.15
2023-05-13T23:15:36.832Z,78.26
2023-05-13T23:18:05.915Z,78.29
2023-05-13T23:20:34.180Z,78.40
2023-05-13T23:23:02.384Z,79.32
2023-05-13T23:25:30.390Z,79.85
2023-05-13T23:27:58.436Z,80.03
2023-05-13T23:30:27.406Z,80.22
2023-05-13T23:32:55.476Z,80.00
2023-05-13T23:35:24.351Z,79.80
2023-05-13T23:37:53.058Z,79.55
2023-05-13T23:40:21.762Z,79.33
2023-05-13T23:42:50.020Z,80.26
2023-05-13T23:45:18.102Z,80.38
2023-05-13T23:47:46.291Z,80.26
2023-05-13T23:50:41.600Z,80.08
2023-05-13T23:53:09.858Z,79.63
2023-05-13T23:55:38.112Z,79.75
2023-05-13T23:58:06.316Z,79.82
